Marine 711 — 9GDA — position and weather

sailwx.info

Track history (hours):
 
Tides and Currents Weather Stations Pressure Air Temp Water Temp Dewpoint Dewpoint Depression Visibility Wind Speed Wind Dir Waves Ship Positions

Marine 711

Last reported at 2018-Jun-21 20:53 UTC. Time now 2018-Jun-22 07:33 UTC.
Position N 05°21' E 000°26'.

Length 70 m.

MMSI: 627694000.

Date/timePositionNaut miles runAvg speedWind from/ knotsBaromVisibWave heightAir tempDewpointWater temp
2018-Jun-21 20:53N 05°21' E 000°26'3 8.9
2018-Jun-21 20:31N 05°21' E 000°22'510.1
2018-Jun-21 20:00N 05°20' E 000°17'510.1
2018-Jun-21 19:30N 05°20' E 000°12'510.2
2018-Jun-21 19:00N 05°19' E 000°07'510.2
2018-Jun-21 18:30N 05°19' E 000°02'510.2
2018-Jun-21 18:01N 05°18' W 000°03'610.2
2018-Jun-21 17:25N 05°17' W 000°09'710.0
2018-Jun-21 16:42N 05°16' W 000°16'2 9.9
2018-Jun-21 16:30N 05°16' W 000°18'12 0.3
2018-Jun-20 00:55N 05°15' W 000°06'4 6.4
2018-Jun-20 00:19N 05°15' W 000°02'2 6.6
2018-Jun-19 23:59N 05°15' W 000°00'3 6.8
2018-Jun-19 23:30N 05°17' E 000°03'3 6.7
2018-Jun-19 23:00N 05°18' E 000°06'3 5.8
2018-Jun-19 22:29N 05°18' E 000°09'4 7.6
2018-Jun-19 22:00N 05°15' E 000°11'3 6.8
2018-Jun-19 21:30N 05°15' E 000°15'3 6.9
2018-Jun-19 21:00N 05°15' E 000°18'4 6.9
2018-Jun-19 20:30N 05°16' E 000°22'9 0.3
2018-Jun-18 17:11N 05°25' E 000°23'2 9.4
2018-Jun-18 17:00N 05°26' E 000°21'4 8.4
2018-Jun-18 16:30N 05°25' E 000°17'510.0
2018-Jun-18 16:00N 05°24' E 000°12'5 9.9
2018-Jun-18 15:30N 05°24' E 000°07'510.0
2018-Jun-18 15:00N 05°23' E 000°02'5 9.9
2018-Jun-18 14:30N 05°22' W 000°03'5 9.9
2018-Jun-18 14:00N 05°22' W 000°08'5 9.9
2018-Jun-18 13:30N 05°21' W 000°13'510.0
2018-Jun-18 13:00N 05°20' W 000°18'13 0.7
2018-Jun-17 17:45N 05°14' W 000°07'10 7.1
2018-Jun-17 16:21N 05°14' E 000°03'6 6.6
2018-Jun-17 15:30N 05°15' E 000°09'3 6.9
2018-Jun-17 15:00N 05°16' E 000°12'3 6.9
2018-Jun-17 14:30N 05°17' E 000°15'3 5.8
2018-Jun-17 14:00N 05°16' E 000°18'3 5.7
2018-Jun-17 13:25N 05°17' E 000°21'16 4.7
2018-Jun-17 10:04N 05°32' E 000°26'2 8.3
2018-Jun-17 09:46N 05°30' E 000°25'2 9.4
2018-Jun-17 09:30N 05°28' E 000°23'5 8.6
2018-Jun-17 08:59N 05°27' E 000°19'4 9.3
2018-Jun-17 08:30N 05°25' E 000°15'3 6.7
2018-Jun-17 08:00N 05°26' E 000°12'4 7.2
2018-Jun-17 07:28N 05°28' E 000°08'2 5.0
2018-Jun-17 07:00N 05°30' E 000°08'4 7.6
2018-Jun-17 06:30N 05°34' E 000°08'4 7.7
2018-Jun-17 06:00N 05°38' E 000°08'1 2.9
2018-Jun-17 05:30N 05°39' E 000°08'1 1.7
2018-Jun-17 04:54N 05°38' E 000°08'0 0.0
2018-Jun-17 04:30N 05°38' E 000°08'0 0.0
2018-Jun-17 03:55N 05°38' E 000°07'0 0.0
2018-Jun-17 03:14N 05°38' E 000°08'0 0.0
2018-Jun-17 02:54N 05°38' E 000°07'0 0.0
2018-Jun-17 02:23N 05°38' E 000°08'0 0.0
2018-Jun-17 01:58N 05°38' E 000°07'0 0.0
2018-Jun-17 01:24N 05°38' E 000°07'0 0.0
2018-Jun-17 00:42N 05°38' E 000°08'0 0.0
2018-Jun-17 00:30N 05°38' E 000°08'0 0.0
2018-Jun-16 23:56N 05°38' E 000°08'0 0.0
2018-Jun-16 23:20N 05°38' E 000°08'0 0.0
2018-Jun-16 23:00N 05°38' E 000°08'0 0.0
2018-Jun-16 22:28N 05°38' E 000°08'0 0.0
2018-Jun-16 22:00N 05°38' E 000°08'0 0.0
2018-Jun-16 21:24N 05°38' E 000°08'0 0.0
2018-Jun-16 21:00N 05°38' E 000°08'2 3.6
2018-Jun-16 20:30N 05°37' E 000°06'4 8.4
2018-Jun-16 20:00N 05°33' E 000°06'4 8.2
2018-Jun-16 19:30N 05°29' E 000°05'4 8.2
2018-Jun-16 19:00N 05°25' E 000°05'2 3.9
2018-Jun-16 18:25N 05°23' E 000°04'2 5.9
2018-Jun-16 17:59N 05°20' E 000°03'1 1.4
2018-Jun-16 17:29N 05°20' E 000°02'3 4.3
2018-Jun-16 16:51N 05°17' E 000°02'0 0.2
2018-Jun-16 16:30N 05°17' E 000°02'0 0.9
2018-Jun-16 16:00N 05°17' E 000°01'4 8.6
2018-Jun-16 15:30N 05°16' W 000°03'2 4.9
2018-Jun-16 15:00N 05°15' W 000°05'7 6.2
2018-Jun-16 13:54N 05°14' W 000°12'7 8.4
2018-Jun-16 13:05N 05°15' W 000°19'2 8.6
2018-Jun-16 12:54N 05°15' W 000°21'4 8.5
2018-Jun-16 12:29N 05°16' W 000°24'4 8.1
2018-Jun-16 12:00N 05°16' W 000°28'5 8.8
2018-Jun-16 11:27N 05°17' W 000°33'1 2.7
2018-Jun-16 10:57N 05°17' W 000°34'11 1.1
2018-Jun-16 00:45N 05°24' W 000°25'0 0.0
2018-Jun-16 00:29N 05°24' W 000°25'3 1.0
2018-Jun-15 22:00N 05°24' W 000°23'27 5.1
2018-Jun-15 16:36N 05°38' E 000°01'0 2.6
2018-Jun-15 16:30N 05°38' E 000°01'1 1.5
2018-Jun-15 16:00N 05°38' E 000°01'0 0.0
2018-Jun-15 15:30N 05°38' E 000°01'0 0.0
2018-Jun-15 15:00N 05°38' E 000°01'0 0.0
2018-Jun-15 14:30N 05°38' E 000°01'0 0.0
2018-Jun-15 13:55N 05°38' E 000°01'0 0.0
2018-Jun-15 13:25N 05°38' E 000°01'0 0.0
2018-Jun-15 12:59N 05°38' E 000°01'0 0.0
2018-Jun-15 12:30N 05°38' E 000°01'0 0.0
2018-Jun-15 11:58N 05°38' E 000°01'0 0.0
2018-Jun-15 11:30N 05°38' E 000°01'0 0.0
2018-Jun-15 11:00N 05°38' E 000°01'0 0.0
2018-Jun-15 10:29N 05°38' E 000°01'0 0.0
2018-Jun-15 09:45N 05°38' E 000°01'0 0.0
2018-Jun-15 09:24N 05°38' E 000°01'0 0.0
2018-Jun-15 08:58N 05°38' E 000°01'0 0.0
2018-Jun-15 08:30N 05°38' E 000°01'0 0.0
2018-Jun-15 07:56N 05°38' E 000°01'0 0.0
2018-Jun-15 07:26N 05°38' E 000°01'0 0.0
2018-Jun-15 06:46N 05°38' E 000°01'0 0.0
2018-Jun-15 06:30N 05°38' E 000°01'0 0.0
2018-Jun-15 05:49N 05°38' E 000°01'0 0.0
2018-Jun-15 05:30N 05°38' E 000°01'0 0.0
2018-Jun-15 05:00N 05°38' E 000°01'0 0.0
2018-Jun-15 04:30N 05°38' E 000°01'0 0.0
2018-Jun-15 04:00N 05°38' E 000°01'0 0.0
2018-Jun-15 03:08N 05°38' E 000°01'0 0.0
2018-Jun-15 02:56N 05°38' E 000°01'0 0.0
2018-Jun-15 02:30N 05°38' E 000°01'0 0.0
2018-Jun-15 01:52N 05°38' E 000°01'0 0.0
2018-Jun-15 01:30N 05°38' E 000°01'0 0.0
2018-Jun-15 01:00N 05°38' E 000°01'0 0.0
2018-Jun-15 00:29N 05°38' E 000°01'0 0.0
2018-Jun-15 00:00N 05°38' E 000°01'0 0.0
2018-Jun-14 23:27N 05°38' E 000°01'0 0.0
2018-Jun-14 23:00N 05°38' E 000°01'0 0.0
2018-Jun-14 22:30N 05°38' E 000°01'0 0.0
2018-Jun-14 21:53N 05°38' E 000°01'0 0.0
2018-Jun-14 21:30N 05°38' E 000°01'0 0.0
2018-Jun-14 21:00N 05°38' E 000°01'0 0.0
2018-Jun-14 20:29N 05°38' E 000°01'0 0.0
2018-Jun-14 19:42N 05°38' E 000°01'0 0.0
2018-Jun-14 19:21N 05°38' E 000°01'0 0.0
2018-Jun-14 18:53N 05°38' E 000°01'0 0.0
2018-Jun-14 18:28N 05°38' E 000°01'0 0.0
2018-Jun-14 17:47N 05°38' E 000°01'0 0.0
2018-Jun-14 17:28N 05°38' E 000°01'0 0.0
2018-Jun-14 16:56N 05°38' E 000°01'0 0.0
2018-Jun-14 16:29N 05°38' E 000°01'0 0.0
2018-Jun-14 15:54N 05°38' E 000°01'0 0.0
2018-Jun-14 15:30N 05°38' E 000°01'0 0.0
2018-Jun-14 14:54N 05°38' E 000°01'0 0.0
2018-Jun-14 14:30N 05°38' E 000°01'0 0.0
2018-Jun-14 13:59N 05°38' E 000°01'0 0.0
2018-Jun-14 13:30N 05°38' E 000°01'0 0.0
2018-Jun-14 13:00N 05°38' E 000°01'0 0.0
2018-Jun-14 12:30N 05°38' E 000°01'0 0.0
2018-Jun-14 12:01N 05°38' E 000°01'0 0.0
2018-Jun-14 11:30N 05°38' E 000°01'0 0.0
2018-Jun-14 11:00N 05°38' E 000°01'0 0.0
2018-Jun-14 10:25N 05°38' E 000°01'0 0.0
2018-Jun-14 10:00N 05°38' E 000°01'0 0.0
2018-Jun-14 09:30N 05°38' E 000°01'0 0.0
2018-Jun-14 08:59N 05°38' E 000°01'0 0.0
2018-Jun-14 08:23N 05°38' E 000°01'0 0.0
2018-Jun-14 07:58N 05°38' E 000°01'0 0.0
2018-Jun-14 07:27N 05°38' E 000°01'0 0.0
2018-Jun-14 06:59N 05°38' E 000°01'0 0.0
2018-Jun-14 06:28N 05°38' E 000°01'0 0.0
2018-Jun-14 05:58N 05°38' E 000°01'0 0.0
2018-Jun-14 05:31N 05°38' E 000°01'0 0.0
2018-Jun-14 04:59N 05°38' E 000°01'0 0.0
2018-Jun-14 04:30N 05°38' E 000°01'0 0.0
2018-Jun-14 04:00N 05°38' E 000°01'0 0.0
2018-Jun-14 03:28N 05°38' E 000°01'0 0.0
2018-Jun-14 02:57N 05°38' E 000°01'0 0.0
2018-Jun-14 02:29N 05°38' E 000°01'0 0.0
2018-Jun-14 02:00N 05°38' E 000°01'0 0.0
2018-Jun-14 01:30N 05°38' E 000°01'0 0.0
2018-Jun-14 00:58N 05°38' E 000°01'0 0.0
2018-Jun-14 00:28N 05°38' E 000°01'0 0.0
2018-Jun-14 00:00N 05°38' E 000°01'0 0.0
2018-Jun-13 23:29N 05°38' E 000°01'0 0.0
2018-Jun-13 23:00N 05°38' E 000°01'0 0.0
2018-Jun-13 22:30N 05°38' E 000°01'0 0.0
2018-Jun-13 22:00N 05°38' E 000°01'0 0.0
2018-Jun-13 21:30N 05°38' E 000°01'0 0.0
2018-Jun-13 21:00N 05°38' E 000°01'0 0.0
2018-Jun-13 20:30N 05°38' E 000°01'0 0.0
2018-Jun-13 19:53N 05°38' E 000°01'0 0.0
2018-Jun-13 19:26N 05°38' E 000°01'0 0.0
2018-Jun-13 18:54N 05°38' E 000°01'0 0.0
2018-Jun-13 18:30N 05°38' E 000°01'0 0.0
2018-Jun-13 17:59N 05°38' E 000°01'0 0.0
2018-Jun-13 17:29N 05°38' E 000°01'0 0.0
2018-Jun-13 17:00N 05°38' E 000°01'0 0.0
2018-Jun-13 16:27N 05°38' E 000°01'0 0.0
2018-Jun-13 16:00N 05°38' E 000°01'0 0.0
2018-Jun-13 15:28N 05°38' E 000°01'0 0.0
2018-Jun-13 14:58N 05°38' E 000°01'0 0.0
2018-Jun-13 14:30N 05°38' E 000°01'0 0.0
2018-Jun-13 13:58N 05°38' E 000°01'0 0.0
2018-Jun-13 13:30N 05°38' E 000°01'0 0.0
2018-Jun-13 12:59N 05°38' E 000°01'0 0.0
2018-Jun-13 12:30N 05°38' E 000°01'0 0.0
2018-Jun-13 12:00N 05°38' E 000°01'0 0.0
2018-Jun-13 11:09N 05°38' E 000°01'0 0.0
2018-Jun-13 10:57N 05°38' E 000°01'0 0.0
2018-Jun-13 10:30N 05°38' E 000°01'0 0.0
2018-Jun-13 10:00N 05°38' E 000°01'0 0.0
2018-Jun-13 09:30N 05°38' E 000°01'0 0.0
2018-Jun-13 09:00N 05°38' E 000°01'0 0.0
2018-Jun-13 08:29N 05°38' E 000°01'0 0.0
2018-Jun-13 08:00N 05°38' E 000°01'0 0.0
2018-Jun-13 07:30N 05°38' E 000°01'0 0.0
2018-Jun-13 07:00N 05°38' E 000°01'0 0.0
2018-Jun-13 06:30N 05°38' E 000°01'0 0.0
2018-Jun-13 05:57N 05°38' E 000°01'0 0.0
2018-Jun-13 05:30N 05°38' E 000°01'0 0.0
2018-Jun-13 04:55N 05°38' E 000°01'0 0.0
2018-Jun-13 04:27N 05°38' E 000°01'0 0.0
2018-Jun-13 04:00N 05°38' E 000°01'0 0.0
2018-Jun-13 03:30N 05°38' E 000°01'0 0.0
2018-Jun-13 02:58N 05°38' E 000°01'0 0.0
2018-Jun-13 02:28N 05°38' E 000°01'0 0.0
2018-Jun-13 02:00N 05°38' E 000°01'0 0.0
2018-Jun-13 01:28N 05°38' E 000°01'0 0.0
2018-Jun-13 01:00N 05°38' E 000°01'0 0.0
2018-Jun-13 00:30N 05°38' E 000°01'0 0.0
2018-Jun-13 00:00N 05°38' E 000°01'0 0.0
2018-Jun-12 23:31N 05°38' E 000°01'0 0.0
2018-Jun-12 23:01N 05°38' E 000°01'0 0.0
2018-Jun-12 22:29N 05°38' E 000°01'0 0.0
2018-Jun-12 22:00N 05°38' E 000°01'0 0.0
2018-Jun-12 21:30N 05°38' E 000°01'0 0.0
2018-Jun-12 21:01N 05°38' E 000°01'0 0.0
2018-Jun-12 20:29N 05°38' E 000°01'0 0.0
2018-Jun-12 19:56N 05°38' E 000°01'0 0.0
2018-Jun-12 19:29N 05°38' E 000°01'0 0.0
2018-Jun-12 18:50N 05°38' E 000°01'0 0.0
2018-Jun-12 18:30N 05°38' E 000°01'0 0.0
2018-Jun-12 18:00N 05°38' E 000°01'0 0.0
2018-Jun-12 17:29N 05°38' E 000°01'0 0.0
2018-Jun-12 16:58N 05°38' E 000°01'0 0.0
2018-Jun-12 16:30N 05°38' E 000°01'0 0.0
2018-Jun-12 15:57N 05°38' E 000°01'0 0.0
2018-Jun-12 15:30N 05°38' E 000°01'0 0.0
2018-Jun-12 15:01N 05°38' E 000°01'0 0.0
2018-Jun-12 14:29N 05°38' E 000°01'0 0.0
2018-Jun-12 14:00N 05°38' E 000°01'0 0.0
2018-Jun-12 13:29N 05°38' E 000°01'0 0.0
2018-Jun-12 12:49N 05°38' E 000°01'0 0.0
2018-Jun-12 12:31N 05°38' E 000°01'0 0.0
2018-Jun-12 11:57N 05°38' E 000°01'0 0.0
2018-Jun-12 11:30N 05°38' E 000°01'0 0.0
2018-Jun-12 11:01N 05°38' E 000°01'0 0.0
2018-Jun-12 10:30N 05°38' E 000°01'0 0.0
2018-Jun-12 10:00N 05°38' E 000°01'0 0.0
2018-Jun-12 09:31N 05°38' E 000°01'0 0.0
2018-Jun-12 09:01N 05°38' E 000°01'0 0.0
2018-Jun-12 08:26N 05°38' E 000°01'0 0.0
2018-Jun-12 08:00N 05°38' E 000°01'0 0.0
2018-Jun-12 07:27N 05°38' E 000°01'0 0.0
2018-Jun-12 06:59N 05°38' E 000°01'0 0.0
2018-Jun-12 06:08N 05°38' E 000°01'0 0.0
2018-Jun-12 05:59N 05°38' E 000°01'0 0.0
2018-Jun-12 05:30N 05°38' E 000°01'0 0.0
2018-Jun-12 05:00N 05°38' E 000°01'0 0.0
2018-Jun-12 04:30N 05°38' E 000°01'0 0.0
2018-Jun-12 04:00N 05°38' E 000°01'0 0.0
2018-Jun-12 03:30N 05°38' E 000°01'0 0.0
2018-Jun-12 02:59N 05°38' E 000°01'0 0.0
2018-Jun-12 02:20N 05°38' E 000°01'0 0.0
2018-Jun-12 02:01N 05°38' E 000°01'0 0.0
2018-Jun-12 01:30N 05°38' E 000°01'0 0.0
2018-Jun-12 01:01N 05°38' E 000°01'0 0.0
2018-Jun-12 00:30N 05°38' E 000°01'0 0.0
2018-Jun-11 23:58N 05°38' E 000°01'0 0.0
2018-Jun-11 23:28N 05°38' E 000°01'0 0.0
2018-Jun-11 23:00N 05°38' E 000°01'0 0.0
2018-Jun-11 22:30N 05°38' E 000°01'0 0.0
2018-Jun-11 22:00N 05°38' E 000°01'0 0.0
2018-Jun-11 21:31N 05°38' E 000°01'0 0.0
2018-Jun-11 21:00N 05°38' E 000°01'  
Track history (hours):
 
Tides and Currents Weather Stations Pressure Air Temp Water Temp Dewpoint Dewpoint Depression Visibility Wind Speed Wind Dir Waves Ship Positions

Marine 711

Last reported at 2018-Jun-21 20:53 UTC. Time now 2018-Jun-22 07:33 UTC.
Position N 05°21' E 000°26'.

Length 70 m.

MMSI: 627694000.

Date/timePositionNaut miles runAvg speedWind from/ knotsBaromVisibWave heightAir tempDewpointWater temp
2018-Jun-21 20:53N 05°21' E 000°26'3 8.9
2018-Jun-21 20:31N 05°21' E 000°22'510.1
2018-Jun-21 20:00N 05°20' E 000°17'510.1
2018-Jun-21 19:30N 05°20' E 000°12'510.2
2018-Jun-21 19:00N 05°19' E 000°07'510.2
2018-Jun-21 18:30N 05°19' E 000°02'510.2
2018-Jun-21 18:01N 05°18' W 000°03'610.2
2018-Jun-21 17:25N 05°17' W 000°09'710.0
2018-Jun-21 16:42N 05°16' W 000°16'2 9.9
2018-Jun-21 16:30N 05°16' W 000°18'12 0.3
2018-Jun-20 00:55N 05°15' W 000°06'4 6.4
2018-Jun-20 00:19N 05°15' W 000°02'2 6.6
2018-Jun-19 23:59N 05°15' W 000°00'3 6.8
2018-Jun-19 23:30N 05°17' E 000°03'3 6.7
2018-Jun-19 23:00N 05°18' E 000°06'3 5.8
2018-Jun-19 22:29N 05°18' E 000°09'4 7.6
2018-Jun-19 22:00N 05°15' E 000°11'3 6.8
2018-Jun-19 21:30N 05°15' E 000°15'3 6.9
2018-Jun-19 21:00N 05°15' E 000°18'4 6.9
2018-Jun-19 20:30N 05°16' E 000°22'9 0.3
2018-Jun-18 17:11N 05°25' E 000°23'2 9.4
2018-Jun-18 17:00N 05°26' E 000°21'4 8.4
2018-Jun-18 16:30N 05°25' E 000°17'510.0
2018-Jun-18 16:00N 05°24' E 000°12'5 9.9
2018-Jun-18 15:30N 05°24' E 000°07'510.0
2018-Jun-18 15:00N 05°23' E 000°02'5 9.9
2018-Jun-18 14:30N 05°22' W 000°03'5 9.9
2018-Jun-18 14:00N 05°22' W 000°08'5 9.9
2018-Jun-18 13:30N 05°21' W 000°13'510.0
2018-Jun-18 13:00N 05°20' W 000°18'13 0.7
2018-Jun-17 17:45N 05°14' W 000°07'10 7.1
2018-Jun-17 16:21N 05°14' E 000°03'6 6.6
2018-Jun-17 15:30N 05°15' E 000°09'3 6.9
2018-Jun-17 15:00N 05°16' E 000°12'3 6.9
2018-Jun-17 14:30N 05°17' E 000°15'3 5.8
2018-Jun-17 14:00N 05°16' E 000°18'3 5.7
2018-Jun-17 13:25N 05°17' E 000°21'16 4.7
2018-Jun-17 10:04N 05°32' E 000°26'2 8.3
2018-Jun-17 09:46N 05°30' E 000°25'2 9.4
2018-Jun-17 09:30N 05°28' E 000°23'5 8.6
2018-Jun-17 08:59N 05°27' E 000°19'4 9.3
2018-Jun-17 08:30N 05°25' E 000°15'3 6.7
2018-Jun-17 08:00N 05°26' E 000°12'4 7.2
2018-Jun-17 07:28N 05°28' E 000°08'2 5.0
2018-Jun-17 07:00N 05°30' E 000°08'4 7.6
2018-Jun-17 06:30N 05°34' E 000°08'4 7.7
2018-Jun-17 06:00N 05°38' E 000°08'1 2.9
2018-Jun-17 05:30N 05°39' E 000°08'1 1.7
2018-Jun-17 04:54N 05°38' E 000°08'0 0.0
2018-Jun-17 04:30N 05°38' E 000°08'0 0.0
2018-Jun-17 03:55N 05°38' E 000°07'0 0.0
2018-Jun-17 03:14N 05°38' E 000°08'0 0.0
2018-Jun-17 02:54N 05°38' E 000°07'0 0.0
2018-Jun-17 02:23N 05°38' E 000°08'0 0.0
2018-Jun-17 01:58N 05°38' E 000°07'0 0.0
2018-Jun-17 01:24N 05°38' E 000°07'0 0.0
2018-Jun-17 00:42N 05°38' E 000°08'0 0.0
2018-Jun-17 00:30N 05°38' E 000°08'0 0.0
2018-Jun-16 23:56N 05°38' E 000°08'0 0.0
2018-Jun-16 23:20N 05°38' E 000°08'0 0.0
2018-Jun-16 23:00N 05°38' E 000°08'0 0.0
2018-Jun-16 22:28N 05°38' E 000°08'0 0.0
2018-Jun-16 22:00N 05°38' E 000°08'0 0.0
2018-Jun-16 21:24N 05°38' E 000°08'0 0.0
2018-Jun-16 21:00N 05°38' E 000°08'2 3.6
2018-Jun-16 20:30N 05°37' E 000°06'4 8.4
2018-Jun-16 20:00N 05°33' E 000°06'4 8.2
2018-Jun-16 19:30N 05°29' E 000°05'4 8.2
2018-Jun-16 19:00N 05°25' E 000°05'2 3.9
2018-Jun-16 18:25N 05°23' E 000°04'2 5.9
2018-Jun-16 17:59N 05°20' E 000°03'1 1.4
2018-Jun-16 17:29N 05°20' E 000°02'3 4.3
2018-Jun-16 16:51N 05°17' E 000°02'0 0.2
2018-Jun-16 16:30N 05°17' E 000°02'0 0.9
2018-Jun-16 16:00N 05°17' E 000°01'4 8.6
2018-Jun-16 15:30N 05°16' W 000°03'2 4.9
2018-Jun-16 15:00N 05°15' W 000°05'7 6.2
2018-Jun-16 13:54N 05°14' W 000°12'7 8.4
2018-Jun-16 13:05N 05°15' W 000°19'2 8.6
2018-Jun-16 12:54N 05°15' W 000°21'4 8.5
2018-Jun-16 12:29N 05°16' W 000°24'4 8.1
2018-Jun-16 12:00N 05°16' W 000°28'5 8.8
2018-Jun-16 11:27N 05°17' W 000°33'1 2.7
2018-Jun-16 10:57N 05°17' W 000°34'11 1.1
2018-Jun-16 00:45N 05°24' W 000°25'0 0.0
2018-Jun-16 00:29N 05°24' W 000°25'3 1.0
2018-Jun-15 22:00N 05°24' W 000°23'27 5.1
2018-Jun-15 16:36N 05°38' E 000°01'0 2.6
2018-Jun-15 16:30N 05°38' E 000°01'1 1.5
2018-Jun-15 16:00N 05°38' E 000°01'0 0.0
2018-Jun-15 15:30N 05°38' E 000°01'0 0.0
2018-Jun-15 15:00N 05°38' E 000°01'0 0.0
2018-Jun-15 14:30N 05°38' E 000°01'0 0.0
2018-Jun-15 13:55N 05°38' E 000°01'0 0.0
2018-Jun-15 13:25N 05°38' E 000°01'0 0.0
2018-Jun-15 12:59N 05°38' E 000°01'0 0.0
2018-Jun-15 12:30N 05°38' E 000°01'0 0.0
2018-Jun-15 11:58N 05°38' E 000°01'0 0.0
2018-Jun-15 11:30N 05°38' E 000°01'0 0.0
2018-Jun-15 11:00N 05°38' E 000°01'0 0.0
2018-Jun-15 10:29N 05°38' E 000°01'0 0.0
2018-Jun-15 09:45N 05°38' E 000°01'0 0.0
2018-Jun-15 09:24N 05°38' E 000°01'0 0.0
2018-Jun-15 08:58N 05°38' E 000°01'0 0.0
2018-Jun-15 08:30N 05°38' E 000°01'0 0.0
2018-Jun-15 07:56N 05°38' E 000°01'0 0.0
2018-Jun-15 07:26N 05°38' E 000°01'0 0.0
2018-Jun-15 06:46N 05°38' E 000°01'0 0.0
2018-Jun-15 06:30N 05°38' E 000°01'0 0.0
2018-Jun-15 05:49N 05°38' E 000°01'0 0.0
2018-Jun-15 05:30N 05°38' E 000°01'0 0.0
2018-Jun-15 05:00N 05°38' E 000°01'0 0.0
2018-Jun-15 04:30N 05°38' E 000°01'0 0.0
2018-Jun-15 04:00N 05°38' E 000°01'0 0.0
2018-Jun-15 03:08N 05°38' E 000°01'0 0.0
2018-Jun-15 02:56N 05°38' E 000°01'0 0.0
2018-Jun-15 02:30N 05°38' E 000°01'0 0.0
2018-Jun-15 01:52N 05°38' E 000°01'0 0.0
2018-Jun-15 01:30N 05°38' E 000°01'0 0.0
2018-Jun-15 01:00N 05°38' E 000°01'0 0.0
2018-Jun-15 00:29N 05°38' E 000°01'0 0.0
2018-Jun-15 00:00N 05°38' E 000°01'0 0.0
2018-Jun-14 23:27N 05°38' E 000°01'0 0.0
2018-Jun-14 23:00N 05°38' E 000°01'0 0.0
2018-Jun-14 22:30N 05°38' E 000°01'0 0.0
2018-Jun-14 21:53N 05°38' E 000°01'0 0.0
2018-Jun-14 21:30N 05°38' E 000°01'0 0.0
2018-Jun-14 21:00N 05°38' E 000°01'0 0.0
2018-Jun-14 20:29N 05°38' E 000°01'0 0.0
2018-Jun-14 19:42N 05°38' E 000°01'0 0.0
2018-Jun-14 19:21N 05°38' E 000°01'0 0.0
2018-Jun-14 18:53N 05°38' E 000°01'0 0.0
2018-Jun-14 18:28N 05°38' E 000°01'0 0.0
2018-Jun-14 17:47N 05°38' E 000°01'0 0.0
2018-Jun-14 17:28N 05°38' E 000°01'0 0.0
2018-Jun-14 16:56N 05°38' E 000°01'0 0.0
2018-Jun-14 16:29N 05°38' E 000°01'0 0.0
2018-Jun-14 15:54N 05°38' E 000°01'0 0.0
2018-Jun-14 15:30N 05°38' E 000°01'0 0.0
2018-Jun-14 14:54N 05°38' E 000°01'0 0.0
2018-Jun-14 14:30N 05°38' E 000°01'0 0.0
2018-Jun-14 13:59N 05°38' E 000°01'0 0.0
2018-Jun-14 13:30N 05°38' E 000°01'0 0.0
2018-Jun-14 13:00N 05°38' E 000°01'0 0.0
2018-Jun-14 12:30N 05°38' E 000°01'0 0.0
2018-Jun-14 12:01N 05°38' E 000°01'0 0.0
2018-Jun-14 11:30N 05°38' E 000°01'0 0.0
2018-Jun-14 11:00N 05°38' E 000°01'0 0.0
2018-Jun-14 10:25N 05°38' E 000°01'0 0.0
2018-Jun-14 10:00N 05°38' E 000°01'0 0.0
2018-Jun-14 09:30N 05°38' E 000°01'0 0.0
2018-Jun-14 08:59N 05°38' E 000°01'0 0.0
2018-Jun-14 08:23N 05°38' E 000°01'0 0.0
2018-Jun-14 07:58N 05°38' E 000°01'0 0.0
2018-Jun-14 07:27N 05°38' E 000°01'0 0.0
2018-Jun-14 06:59N 05°38' E 000°01'0 0.0
2018-Jun-14 06:28N 05°38' E 000°01'0 0.0
2018-Jun-14 05:58N 05°38' E 000°01'0 0.0
2018-Jun-14 05:31N 05°38' E 000°01'0 0.0
2018-Jun-14 04:59N 05°38' E 000°01'0 0.0
2018-Jun-14 04:30N 05°38' E 000°01'0 0.0
2018-Jun-14 04:00N 05°38' E 000°01'0 0.0
2018-Jun-14 03:28N 05°38' E 000°01'0 0.0
2018-Jun-14 02:57N 05°38' E 000°01'0 0.0
2018-Jun-14 02:29N 05°38' E 000°01'0 0.0
2018-Jun-14 02:00N 05°38' E 000°01'0 0.0
2018-Jun-14 01:30N 05°38' E 000°01'0 0.0
2018-Jun-14 00:58N 05°38' E 000°01'0 0.0
2018-Jun-14 00:28N 05°38' E 000°01'0 0.0
2018-Jun-14 00:00N 05°38' E 000°01'0 0.0
2018-Jun-13 23:29N 05°38' E 000°01'0 0.0
2018-Jun-13 23:00N 05°38' E 000°01'0 0.0
2018-Jun-13 22:30N 05°38' E 000°01'0 0.0
2018-Jun-13 22:00N 05°38' E 000°01'0 0.0
2018-Jun-13 21:30N 05°38' E 000°01'0 0.0
2018-Jun-13 21:00N 05°38' E 000°01'0 0.0
2018-Jun-13 20:30N 05°38' E 000°01'0 0.0
2018-Jun-13 19:53N 05°38' E 000°01'0 0.0
2018-Jun-13 19:26N 05°38' E 000°01'0 0.0
2018-Jun-13 18:54N 05°38' E 000°01'0 0.0
2018-Jun-13 18:30N 05°38' E 000°01'0 0.0
2018-Jun-13 17:59N 05°38' E 000°01'0 0.0
2018-Jun-13 17:29N 05°38' E 000°01'0 0.0
2018-Jun-13 17:00N 05°38' E 000°01'0 0.0
2018-Jun-13 16:27N 05°38' E 000°01'0 0.0
2018-Jun-13 16:00N 05°38' E 000°01'0 0.0
2018-Jun-13 15:28N 05°38' E 000°01'0 0.0
2018-Jun-13 14:58N 05°38' E 000°01'0 0.0
2018-Jun-13 14:30N 05°38' E 000°01'0 0.0
2018-Jun-13 13:58N 05°38' E 000°01'0 0.0
2018-Jun-13 13:30N 05°38' E 000°01'0 0.0
2018-Jun-13 12:59N 05°38' E 000°01'0 0.0
2018-Jun-13 12:30N 05°38' E 000°01'0 0.0
2018-Jun-13 12:00N 05°38' E 000°01'0 0.0
2018-Jun-13 11:09N 05°38' E 000°01'0 0.0
2018-Jun-13 10:57N 05°38' E 000°01'0 0.0
2018-Jun-13 10:30N 05°38' E 000°01'0 0.0
2018-Jun-13 10:00N 05°38' E 000°01'0 0.0
2018-Jun-13 09:30N 05°38' E 000°01'0 0.0
2018-Jun-13 09:00N 05°38' E 000°01'0 0.0
2018-Jun-13 08:29N 05°38' E 000°01'0 0.0
2018-Jun-13 08:00N 05°38' E 000°01'0 0.0
2018-Jun-13 07:30N 05°38' E 000°01'0 0.0
2018-Jun-13 07:00N 05°38' E 000°01'0 0.0
2018-Jun-13 06:30N 05°38' E 000°01'0 0.0
2018-Jun-13 05:57N 05°38' E 000°01'0 0.0
2018-Jun-13 05:30N 05°38' E 000°01'0 0.0
2018-Jun-13 04:55N 05°38' E 000°01'0 0.0
2018-Jun-13 04:27N 05°38' E 000°01'0 0.0
2018-Jun-13 04:00N 05°38' E 000°01'0 0.0
2018-Jun-13 03:30N 05°38' E 000°01'0 0.0
2018-Jun-13 02:58N 05°38' E 000°01'0 0.0
2018-Jun-13 02:28N 05°38' E 000°01'0 0.0
2018-Jun-13 02:00N 05°38' E 000°01'0 0.0
2018-Jun-13 01:28N 05°38' E 000°01'0 0.0
2018-Jun-13 01:00N 05°38' E 000°01'0 0.0
2018-Jun-13 00:30N 05°38' E 000°01'0 0.0
2018-Jun-13 00:00N 05°38' E 000°01'0 0.0
2018-Jun-12 23:31N 05°38' E 000°01'0 0.0
2018-Jun-12 23:01N 05°38' E 000°01'0 0.0
2018-Jun-12 22:29N 05°38' E 000°01'0 0.0
2018-Jun-12 22:00N 05°38' E 000°01'0 0.0
2018-Jun-12 21:30N 05°38' E 000°01'0 0.0
2018-Jun-12 21:01N 05°38' E 000°01'0 0.0
2018-Jun-12 20:29N 05°38' E 000°01'0 0.0
2018-Jun-12 19:56N 05°38' E 000°01'0 0.0
2018-Jun-12 19:29N 05°38' E 000°01'0 0.0
2018-Jun-12 18:50N 05°38' E 000°01'0 0.0
2018-Jun-12 18:30N 05°38' E 000°01'0 0.0
2018-Jun-12 18:00N 05°38' E 000°01'0 0.0
2018-Jun-12 17:29N 05°38' E 000°01'0 0.0
2018-Jun-12 16:58N 05°38' E 000°01'0 0.0
2018-Jun-12 16:30N 05°38' E 000°01'0 0.0
2018-Jun-12 15:57N 05°38' E 000°01'0 0.0
2018-Jun-12 15:30N 05°38' E 000°01'0 0.0
2018-Jun-12 15:01N 05°38' E 000°01'0 0.0
2018-Jun-12 14:29N 05°38' E 000°01'0 0.0
2018-Jun-12 14:00N 05°38' E 000°01'0 0.0
2018-Jun-12 13:29N 05°38' E 000°01'0 0.0
2018-Jun-12 12:49N 05°38' E 000°01'0 0.0
2018-Jun-12 12:31N 05°38' E 000°01'0 0.0
2018-Jun-12 11:57N 05°38' E 000°01'0 0.0
2018-Jun-12 11:30N 05°38' E 000°01'0 0.0
2018-Jun-12 11:01N 05°38' E 000°01'0 0.0
2018-Jun-12 10:30N 05°38' E 000°01'0 0.0
2018-Jun-12 10:00N 05°38' E 000°01'0 0.0
2018-Jun-12 09:31N 05°38' E 000°01'0 0.0
2018-Jun-12 09:01N 05°38' E 000°01'0 0.0
2018-Jun-12 08:26N 05°38' E 000°01'0 0.0
2018-Jun-12 08:00N 05°38' E 000°01'0 0.0
2018-Jun-12 07:27N 05°38' E 000°01'0 0.0
2018-Jun-12 06:59N 05°38' E 000°01'0 0.0
2018-Jun-12 06:08N 05°38' E 000°01'0 0.0
2018-Jun-12 05:59N 05°38' E 000°01'0 0.0
2018-Jun-12 05:30N 05°38' E 000°01'0 0.0
2018-Jun-12 05:00N 05°38' E 000°01'0 0.0
2018-Jun-12 04:30N 05°38' E 000°01'0 0.0
2018-Jun-12 04:00N 05°38' E 000°01'0 0.0
2018-Jun-12 03:30N 05°38' E 000°01'0 0.0
2018-Jun-12 02:59N 05°38' E 000°01'0 0.0
2018-Jun-12 02:20N 05°38' E 000°01'0 0.0
2018-Jun-12 02:01N 05°38' E 000°01'0 0.0
2018-Jun-12 01:30N 05°38' E 000°01'0 0.0
2018-Jun-12 01:01N 05°38' E 000°01'0 0.0
2018-Jun-12 00:30N 05°38' E 000°01'0 0.0
2018-Jun-11 23:58N 05°38' E 000°01'0 0.0
2018-Jun-11 23:28N 05°38' E 000°01'0 0.0
2018-Jun-11 23:00N 05°38' E 000°01'0 0.0
2018-Jun-11 22:30N 05°38' E 000°01'0 0.0
2018-Jun-11 22:00N 05°38' E 000°01'0 0.0
2018-Jun-11 21:31N 05°38' E 000°01'0 0.0
2018-Jun-11 21:00N 05°38' E 000°01'  

Dump ship's entire track history